Details From LJLJ - Ljubljana
To FMNM - Philibert Tsiranana
Flight Number -
Tags Decoded
Created
Modified
Stats Distance 4,385 nm / 8,120 km
Max Altitude 0 ft / 0 m
Waypoints 12
Social Downloads 1
Likes 0
Share VATSIM

Download

Looking for another format? Having issues loading an existing format? Contact us
Advertisement - Login to hide

Notes

Decoded

Route

LJLJ NANIS LJPZ LDPL CRE LOS ALANU LDZD LDRI LDZA KAM MG

ID Type Via Altitude Latitude Longitude Leg Dist Tot Dist Heading (true) Name
O LJLJ APT - 0 ft / 0 m 46.23249˚ 14.44039˚ - 0 nm - -
NANIS FIX - 0 ft / 0 m 45.79099˚ 14.03297˚ 31 nm 31 nm 213° / 213° -
LJPZ APT - 0 ft / 0 m 45.47718˚ 13.61198˚ 25 nm 57 nm 223° / 223° -
LDPL APT - 0 ft / 0 m 44.89313˚ 13.90359˚ 37 nm 94 nm 161° / 161° -
CRE NDB - 0 ft / 0 m 44.90288˚ 14.41655˚ 21 nm 116 nm 88° / 89° CRES NDB
LOS NDB - 0 ft / 0 m 44.52710˚ 14.47285˚ 22 nm 139 nm 174° / 174° LOSINJ NDB
ALANU FIX - 0 ft / 0 m 44.52472˚ 15.28056˚ 34 nm 173 nm 90° / 91° -
LDZD APT - 0 ft / 0 m 44.07939˚ 15.34116˚ 26 nm 200 nm 174° / 174° -
LDRI APT - 0 ft / 0 m 45.22566˚ 14.56143˚ 76 nm 276 nm 334° / 334° -
LDZA APT - 0 ft / 0 m 45.73188˚ 16.05197˚ 69 nm 346 nm 64° / 65° -
KAM VOR - 0 ft / 0 m 37.06643˚ 22.02391˚ 585 nm 932 nm 151° / 155° KALAMATA VOR-DME
O MG VOR - 0 ft / 0 m -15.65750˚ 46.34067˚ 3452 nm 4384 nm 152° / 157° PHILIBERT TSIRANANA VOR-DME

Altitude Profile

Advertisement - Login to hide

Weather


0- 5 10 15 20 25 30 35+ Temperature / ° C

Clouds and Precipitation
Forecast for 2018-05-24 12:00 UTC. Updated an hour ago

Ground ~20,000 ft ~40,000 ft Winds

LJLJ

Details ICAO LJLJ (LJU)
Name LJUBLJANA
Region Slovenia
Timezone Europe/Ljubljana (UTC+2.0)
Stats Elevation 1,273 ft / 388 m (AMSL)
Location 46.223685° 14.457608°
Runways 1
Magnetic Variation 3.712° E

METAR

LJLJ 241230Z 14011KT 9999 FEW030TCU SCT033 BKN060 22/15 Q1017 NOSIG

Decode

TAF

TAF LJLJ 240800Z 2409/2509 11005KT 9999 FEW050 SCT130 TEMPO 2409/2509 SHRA SCT030TCU BKN070 PROB40 TEMPO 2411/2424 VRB15KT 5000 TSRA SCT030CB BKN050 BECMG 2419/2421 30003KT

Decode

Departure Runways

ID Width Length Bearing (true) Bearing (mag) Surface Threshold Offset Overrun Length
13 148 ft / 45 m 10,811 ft / 3,295 m 126.47° 122.76° Asphalt 0 ft / 0 m 0 ft / 0 m
31 148 ft / 45 m 10,811 ft / 3,295 m 306.49° 302.78° Asphalt 0 ft / 0 m 0 ft / 0 m

FMNM

Details ICAO FMNM (MJN)
Name PHILIBERT TSIRANANA
Region Comoros, Mayotte, Réunion and Madagascar
Timezone Indian/Antananarivo (UTC+3.0)
Stats Elevation 87 ft / 27 m (AMSL)
Location -15.667144° 46.351829°
Runways 1
Magnetic Variation 11.246° W

METAR

FMNM 241200Z 12012KT 9999 FEW023 33/15 Q1013 NOSIG

Decode

TAF

Not found

Destination Runways

ID Width Length Bearing (true) Bearing (mag) Surface Threshold Offset Overrun Length
14 148 ft / 45 m 7,235 ft / 2,205 m 132.37° 143.62° Asphalt 0 ft / 0 m 98 ft / 30 m
32 148 ft / 45 m 7,235 ft / 2,205 m 312.37° 323.62° Asphalt 0 ft / 0 m 98 ft / 30 m